Terminal Aerodrome Forecast
Issued by NWS

Home | Current Version | Previous Version | Text Only | Print | Product List | Glossary On
Versions: 1 2 3 4 5 6 7 8 9 10 11 12 13 14 15 16 17 18
894
FTUS41 KPBZ 040545
TAFFKL
TAF
KFKL 040545Z 0406/0506 VRB03KT P6SM OVC015
     FM041200 VRB03KT P6SM OVC025
     FM041500 18004KT P6SM OVC050
     FM050400 14006KT P6SM -SHRASN BKN015
      AMD NOT SKED=

USA.gov is the U.S. government's official web portal to all federal, state and local government web resources and services.